Time;durP1;ratioP1;P1;durP2;ratioP2;P2;SDS_P1;SDS_P2;PMS_P1;PMS_P2;Temp;Humidity;BMP_temperature;BMP_pressure;BME280_temperature;BME280_humidity;BME280_pressure;Samples;Min_cycle;Max_cycle;Signal;HPM_P1;HPM_P2
2023/04/25 00:00:23;;;;;;;20.60;16.30;;;;;;;12.38;62.48;98814.03;103103;1259;107521;-78
2023/04/25 00:03:08;;;;;;;19.80;15.70;;;;;;;12.36;62.57;98813.14;102956;1256;139159;-78
2023/04/25 00:05:33;;;;;;;20.00;16.10;;;;;;;12.35;62.68;98811.48;103581;1256;107603;-78
2023/04/25 00:07:58;;;;;;;22.60;15.90;;;;;;;12.33;62.89;98812.95;103085;1256;97822;-76
2023/04/25 00:10:21;;;;;;;19.50;16.40;;;;;;;12.32;63.09;98812.51;103115;1256;138885;-77
2023/04/25 00:12:45;;;;;;;21.50;17.10;;;;;;;12.32;63.26;98813.42;103042;1256;107546;-77
2023/04/25 00:15:10;;;;;;;18.50;16.60;;;;;;;12.31;63.56;98810.64;102879;1256;139012;-77
2023/04/25 00:17:35;;;;;;;21.40;17.80;;;;;;;12.31;63.70;98803.90;103649;1256;107646;-77
2023/04/25 00:19:59;;;;;;;21.40;17.50;;;;;;;12.31;63.82;98806.64;104156;1259;97802;-78
2023/04/25 00:22:22;;;;;;;22.50;17.50;;;;;;;12.31;64.05;98804.23;103074;1257;138990;-77
2023/04/25 00:24:46;;;;;;;21.40;17.80;;;;;;;12.31;64.20;98805.08;102956;1264;107745;-77
2023/04/25 00:27:12;;;;;;;22.80;17.30;;;;;;;12.30;64.43;98804.61;102916;1256;139043;-77
2023/04/25 00:29:36;;;;;;;20.70;17.00;;;;;;;12.30;64.49;98808.27;103090;1256;107074;-79
2023/04/25 00:32:00;;;;;;;21.80;17.70;;;;;;;12.31;64.78;98808.09;102959;1256;97669;-79
2023/04/25 00:34:24;;;;;;;21.60;17.80;;;;;;;12.30;64.77;98810.21;103053;1260;138834;-79
2023/04/25 00:36:47;;;;;;;23.90;18.00;;;;;;;12.29;64.94;98805.71;102872;1261;107686;-79
2023/04/25 00:39:20;;;;;;;24.30;19.10;;;;;;;12.30;65.13;98807.79;103051;1257;139399;-77
2023/04/25 00:41:45;;;;;;;22.50;17.70;;;;;;;12.30;65.27;98806.54;102993;1260;107837;-77
2023/04/25 00:44:11;;;;;;;22.10;18.10;;;;;;;12.29;65.46;98804.50;103035;1257;97889;-77
2023/04/25 00:46:35;;;;;;;19.30;17.30;;;;;;;12.30;65.70;98807.10;102884;1258;138802;-77
2023/04/25 00:48:59;;;;;;;23.60;18.40;;;;;;;12.28;65.79;98806.32;102883;1260;107683;-76
2023/04/25 00:51:23;;;;;;;24.90;18.60;;;;;;;12.27;65.92;98806.08;102858;1257;139220;-77
2023/04/25 00:53:47;;;;;;;22.70;17.90;;;;;;;12.24;65.98;98806.23;102922;1258;105720;-77
2023/04/25 00:56:12;;;;;;;22.90;17.80;;;;;;;12.23;66.18;98808.72;103010;1258;97863;-77
2023/04/25 00:58:36;;;;;;;21.40;18.60;;;;;;;12.23;66.39;98811.39;102963;1257;138866;-80
2023/04/25 01:01:01;;;;;;;24.90;19.20;;;;;;;12.20;66.68;98812.54;102975;1258;107369;-79
2023/04/25 01:03:28;;;;;;;24.50;18.30;;;;;;;12.19;66.84;98810.53;103274;1257;139105;-78
2023/04/25 01:05:52;;;;;;;21.60;18.40;;;;;;;12.18;67.03;98811.84;103186;1258;106982;-78
2023/04/25 01:08:16;;;;;;;24.30;19.10;;;;;;;12.16;67.30;98807.75;103463;1257;98191;-78
2023/04/25 01:10:39;;;;;;;23.00;18.90;;;;;;;12.14;67.52;98810.88;102860;1258;138706;-78
2023/04/25 01:13:03;;;;;;;20.10;18.00;;;;;;;12.12;67.82;98812.02;102872;1259;107683;-78
2023/04/25 01:15:27;;;;;;;24.80;19.30;;;;;;;12.08;68.16;98809.98;103395;1260;138900;-78
2023/04/25 01:17:51;;;;;;;23.40;18.90;;;;;;;12.05;68.37;98811.73;102865;1259;106994;-78
2023/04/25 01:20:15;;;;;;;23.30;17.80;;;;;;;12.04;68.51;98812.55;102975;1258;97802;-78
2023/04/25 01:22:39;;;;;;;20.50;18.10;;;;;;;12.02;68.75;98814.02;102888;1258;138963;-78
2023/04/25 01:25:04;;;;;;;20.20;18.00;;;;;;;12.01;68.85;98810.92;102953;1258;110027;-78
2023/04/25 01:27:29;;;;;;;19.50;17.40;;;;;;;11.98;69.17;98808.84;103109;1263;139324;-77
2023/04/25 01:29:55;;;;;;;19.90;17.70;;;;;;;11.96;69.40;98812.46;103831;1260;107036;-78
2023/04/25 01:32:19;;;;;;;20.10;17.00;;;;;;;11.93;69.54;98806.42;102890;1259;99469;-79
2023/04/25 01:34:43;;;;;;;19.60;16.60;;;;;;;11.90;69.77;98805.90;102747;1263;139731;-78
2023/04/25 01:37:07;;;;;;;20.00;17.00;;;;;;;11.87;69.80;98801.88;102930;1257;108020;-79
2023/04/25 01:39:31;;;;;;;20.30;17.40;;;;;;;11.84;70.08;98800.81;102723;1258;139057;-78
2023/04/25 01:41:56;;;;;;;22.10;18.20;;;;;;;11.82;70.14;98800.41;102980;1260;108935;-79
2023/04/25 01:44:20;;;;;;;21.30;17.10;;;;;;;11.80;70.47;98801.06;103020;1257;97930;-78
2023/04/25 01:46:44;;;;;;;20.70;16.80;;;;;;;11.78;70.59;98801.50;102924;1257;138802;-79
2023/04/25 01:49:08;;;;;;;22.10;17.30;;;;;;;11.79;70.78;98799.88;102930;1258;107960;-79
2023/04/25 01:51:32;;;;;;;22.70;17.20;;;;;;;11.78;70.88;98802.92;102890;1257;139121;-79
2023/04/25 01:53:59;;;;;;;19.80;16.40;;;;;;;11.77;71.12;98803.11;102970;1257;107688;-79
2023/04/25 01:56:36;;;;;;;22.60;17.00;;;;;;;11.75;71.15;98798.90;102969;1258;97826;-78
2023/04/25 01:59:01;;;;;;;21.00;17.10;;;;;;;11.74;71.26;98799.48;102831;1263;138639;-79
2023/04/25 02:01:47;;;;;;;21.10;16.60;;;;;;;11.72;71.43;98800.16;102966;1260;108428;-79
2023/04/25 02:04:19;;;;;;;22.00;17.10;;;;;;;11.68;71.57;98799.19;102750;1261;138990;-79
2023/04/25 02:06:46;;;;;;;19.30;16.40;;;;;;;11.65;71.84;98799.19;103387;1258;107857;-79
2023/04/25 02:09:10;;;;;;;20.70;16.90;;;;;;;11.62;71.91;98803.49;102739;1257;139623;-79
2023/04/25 02:11:38;;;;;;;21.60;17.50;;;;;;;11.63;72.15;98805.38;103066;1257;111325;-78
2023/04/25 02:14:37;;;;;;;21.40;16.60;;;;;;;11.61;72.25;98802.52;102513;1264;107858;-78
2023/04/25 02:17:13;;;;;;;;;;;;;;;11.61;72.44;98801.30;102940;1260;97691;-78
2023/04/25 02:19:50;;;;;;;18.80;15.60;;;;;;;11.60;72.62;98798.42;102808;1257;107984;-79
2023/04/25 02:22:13;;;;;;;21.80;17.30;;;;;;;11.59;72.73;98797.30;104230;1256;140364;-80
2023/04/25 02:24:37;;;;;;;23.80;17.80;;;;;;;11.56;72.69;98795.87;104305;1256;109490;-80
2023/04/25 02:27:01;;;;;;;18.20;15.40;;;;;;;11.54;72.77;98793.56;104088;1256;139180;-79
2023/04/25 02:29:24;;;;;;;20.60;15.60;;;;;;;11.53;72.83;98791.74;104380;1256;96195;-79
2023/04/25 02:31:48;;;;;;;20.70;16.40;;;;;;;11.50;72.86;98789.45;104352;1255;107008;-79
2023/04/25 02:34:13;;;;;;;19.70;15.90;;;;;;;11.47;72.97;98787.13;104286;1256;139135;-79
2023/04/25 02:36:37;;;;;;;16.30;13.50;;;;;;;11.44;73.15;98785.73;103802;1256;111911;-78
2023/04/25 02:39:00;;;;;;;19.30;15.20;;;;;;;11.41;73.14;98789.27;102785;1260;139374;-78
2023/04/25 02:41:28;;;;;;;17.20;14.50;;;;;;;11.38;73.33;98790.83;103059;1256;98349;-79
2023/04/25 02:43:51;;;;;;;14.30;12.70;;;;;;;11.35;73.35;98791.70;103179;1256;108237;-79
2023/04/25 02:46:15;;;;;;;18.50;13.70;;;;;;;11.32;73.43;98791.37;102828;1258;139089;-79
2023/04/25 02:48:51;;;;;;;17.60;13.80;;;;;;;11.31;73.55;98795.97;102958;1257;111457;-79
2023/04/25 02:51:16;;;;;;;14.90;12.70;;;;;;;11.29;73.69;98791.73;102824;1260;139165;-80
2023/04/25 02:53:39;;;;;;;17.90;13.40;;;;;;;11.26;73.87;98792.07;102846;1256;96508;-80
2023/04/25 02:56:03;;;;;;;16.50;13.30;;;;;;;11.23;73.86;98793.46;102857;1256;107047;-80
2023/04/25 02:58:27;;;;;;;17.30;12.80;;;;;;;11.20;74.14;98793.61;102859;1260;139050;-79
2023/04/25 03:00:54;;;;;;;16.00;13.30;;;;;;;11.18;74.17;98793.23;102957;1256;110531;-80
2023/04/25 03:03:17;;;;;;;14.10;12.60;;;;;;;11.15;74.25;98792.16;102865;1256;139045;-80
2023/04/25 03:05:41;;;;;;;16.20;12.60;;;;;;;11.13;74.43;98793.85;102902;1261;98406;-79
2023/04/25 03:08:05;;;;;;;16.20;12.90;;;;;;;11.12;74.53;98790.95;102992;1256;107120;-78
2023/04/25 03:10:31;;;;;;;17.10;13.50;;;;;;;11.12;74.65;98786.79;104309;1256;138928;-79
2023/04/25 03:12:58;;;;;;;18.50;13.50;;;;;;;11.12;74.78;98782.78;103239;1256;111375;-79
2023/04/25 03:15:21;;;;;;;16.00;13.50;;;;;;;11.13;74.79;98783.25;102953;1260;139044;-79
2023/04/25 03:17:45;;;;;;;16.90;12.60;;;;;;;11.13;74.77;98784.45;103173;1260;97898;-79
2023/04/25 03:20:11;;;;;;;15.70;12.40;;;;;;;11.14;74.86;98785.81;103200;1256;107571;-79
2023/04/25 03:22:34;;;;;;;;;;;;;;;11.13;74.97;98786.05;103802;1258;145825;-79
2023/04/25 03:24:58;;;;;;;15.30;12.40;;;;;;;11.11;75.12;98789.11;102973;1261;111801;-79
2023/04/25 03:27:22;;;;;;;18.20;13.50;;;;;;;11.10;75.13;98787.56;102826;1256;139230;-78
2023/04/25 03:29:46;;;;;;;17.90;13.20;;;;;;;11.11;75.17;98792.90;103099;1259;98363;-79
2023/04/25 03:32:10;;;;;;;17.70;13.40;;;;;;;11.11;75.27;98789.45;102975;1256;108281;-79
2023/04/25 03:34:34;;;;;;;14.00;12.30;;;;;;;11.12;75.29;98793.20;102867;1256;139067;-78
2023/04/25 03:36:58;;;;;;;17.20;12.70;;;;;;;11.14;75.40;98799.20;103207;1256;110441;-77
2023/04/25 03:39:22;;;;;;;13.90;12.40;;;;;;;11.14;75.44;98797.28;102847;1256;139643;-77
2023/04/25 03:41:46;;;;;;;17.50;12.80;;;;;;;11.15;75.48;98798.09;103103;1256;98467;-78
2023/04/25 03:44:11;;;;;;;16.40;12.70;;;;;;;11.16;75.52;98801.49;103112;1256;110034;-78
2023/04/25 03:46:36;;;;;;;17.40;13.00;;;;;;;11.18;75.59;98804.17;102989;1256;138923;-79
2023/04/25 03:49:00;;;;;;;13.80;12.00;;;;;;;11.20;75.64;98807.69;103009;1256;111037;-79
2023/04/25 03:51:32;;;;;;;16.40;12.50;;;;;;;11.22;75.62;98806.02;102790;1262;139165;-79
2023/04/25 03:53:55;;;;;;;13.10;11.10;;;;;;;11.25;75.60;98811.24;103037;1256;98510;-80
2023/04/25 03:56:45;;;;;;;13.30;11.20;;;;;;;11.27;75.73;98810.48;103136;1256;108307;-79
2023/04/25 03:59:14;;;;;;;14.80;12.20;;;;;;;11.28;75.65;98813.35;103879;1258;96717;-79
2023/04/25 04:01:38;;;;;;;15.30;10.90;;;;;;;11.30;75.70;98810.96;102998;1260;111121;-79
2023/04/25 04:04:02;;;;;;;15.10;12.00;;;;;;;11.32;75.81;98812.98;102776;1257;138884;-79
2023/04/25 04:06:26;;;;;;;13.60;10.90;;;;;;;11.32;75.73;98816.77;103054;1256;97802;-79
2023/04/25 04:08:57;;;;;;;11.20;9.60;;;;;;;11.32;75.71;98821.30;102955;1256;138884;-80
2023/04/25 04:11:21;;;;;;;11.70;10.40;;;;;;;11.32;75.72;98820.60;103054;1256;97670;-75
2023/04/25 04:13:44;;;;;;;13.40;10.40;;;;;;;11.32;75.82;98824.59;103046;1256;111129;-76
2023/04/25 04:16:08;;;;;;;12.80;9.90;;;;;;;11.33;75.98;98823.83;102964;1260;138966;-76
2023/04/25 04:18:33;;;;;;;12.50;9.70;;;;;;;11.33;75.96;98828.38;103029;1256;98635;-76
2023/04/25 04:20:59;;;;;;;12.00;8.60;;;;;;;11.33;76.00;98829.59;103169;1256;139125;-74
2023/04/25 04:23:27;;;;;;;13.00;8.80;;;;;;;11.33;76.03;98829.09;103018;1257;97845;-76
2023/04/25 04:25:52;;;;;;;11.40;9.00;;;;;;;11.32;76.06;98833.98;102884;1256;111311;-76
2023/04/25 04:28:26;;;;;;;12.20;8.00;;;;;;;11.32;76.09;98831.21;102765;1257;138831;-76
2023/04/25 04:31:10;;;;;;;10.60;8.40;;;;;;;11.31;76.34;98830.58;102980;1257;97711;-76
2023/04/25 04:33:33;;;;;;;10.60;8.60;;;;;;;11.31;76.39;98827.98;102729;1259;138922;-75
2023/04/25 04:35:59;;;;;;;12.80;9.50;;;;;;;11.31;76.38;98830.23;102999;1256;97819;-75
2023/04/25 04:38:25;;;;;;;11.50;9.00;;;;;;;11.31;76.37;98825.19;102915;1257;111234;-71
2023/04/25 04:40:52;;;;;;;11.10;8.80;;;;;;;11.32;76.48;98826.70;104012;1256;138813;-77
2023/04/25 04:43:22;;;;;;;14.40;8.80;;;;;;;11.33;76.69;98828.56;104429;1256;96339;-76
2023/04/25 04:45:52;;;;;;;11.30;9.50;;;;;;;11.34;76.74;98825.17;103357;1256;138482;-76
2023/04/25 04:48:39;;;;;;;10.20;9.10;;;;;;;11.36;76.77;98825.25;102702;1260;97771;-74
2023/04/25 04:51:36;;;;;;;12.20;9.90;;;;;;;11.37;76.87;98830.38;102975;1255;138600;-73
2023/04/25 04:54:11;;;;;;;10.80;9.70;;;;;;;11.39;76.90;98830.29;103047;1257;107711;-74
2023/04/25 04:56:58;;;;;;;12.50;9.80;;;;;;;11.37;76.88;98832.30;102885;1260;138883;-75
2023/04/25 04:59:40;;;;;;;11.30;9.80;;;;;;;11.35;77.03;98831.76;103193;1257;107015;-75
2023/04/25 05:02:14;;;;;;;9.70;8.70;;;;;;;11.33;77.08;98832.03;102887;1256;97911;-76
2023/04/25 05:04:47;;;;;;;12.40;9.30;;;;;;;11.32;77.14;98836.11;102894;1260;138300;-78
2023/04/25 05:07:29;;;;;;;11.70;9.90;;;;;;;11.32;77.38;98835.94;103109;1256;107110;-76
2023/04/25 05:10:09;;;;;;;10.20;9.20;;;;;;;11.30;77.29;98836.19;102934;1257;138840;-76
2023/04/25 05:12:52;;;;;;;11.40;9.50;;;;;;;11.27;77.27;98833.61;102842;1257;108020;-75
2023/04/25 05:15:36;;;;;;;15.20;9.80;;;;;;;11.27;77.43;98840.34;102603;1257;138735;-76
2023/04/25 05:18:18;;;;;;;11.30;9.70;;;;;;;11.30;77.40;98840.03;102981;1256;111490;-78
2023/04/25 05:20:49;;;;;;;12.60;9.70;;;;;;;11.31;77.34;98839.62;102590;1256;279978;-74
2023/04/25 05:23:23;;;;;;;11.60;9.60;;;;;;;11.32;77.38;98835.22;102978;1256;97838;-78
2023/04/25 05:25:47;;;;;;;11.50;8.90;;;;;;;11.32;77.28;98840.44;103019;1256;109127;-75
2023/04/25 05:28:18;;;;;;;11.30;8.70;;;;;;;11.32;77.25;98845.51;103018;1260;138805;-71
2023/04/25 05:31:07;;;;;;;11.30;8.80;;;;;;;11.31;77.26;98843.46;103510;1257;110340;-74
2023/04/25 05:33:46;;;;;;;10.90;8.80;;;;;;;11.28;77.30;98852.13;102993;1256;138805;-74
2023/04/25 05:36:10;;;;;;;11.00;8.30;;;;;;;11.24;77.35;98854.84;103666;1259;97923;-76
2023/04/25 05:38:34;;;;;;;10.10;8.30;;;;;;;11.20;77.24;98854.02;102918;1256;108783;-77
2023/04/25 05:41:18;;;;;;;11.00;9.40;;;;;;;11.14;77.19;98852.07;102755;1260;138595;-74
2023/04/25 05:43:51;;;;;;;16.60;13.00;;;;;;;11.09;77.25;98847.80;102829;1256;110234;-75
2023/04/25 05:46:36;;;;;;;11.70;10.10;;;;;;;11.11;77.65;98844.23;102818;1260;138885;-76
2023/04/25 05:49:15;;;;;;;12.20;10.40;;;;;;;11.12;77.67;98853.02;103028;1256;97684;-76
2023/04/25 05:52:16;;;;;;;12.80;10.10;;;;;;;11.13;77.59;98850.55;102890;1260;139243;-74
2023/04/25 05:54:44;;;;;;;12.50;10.10;;;;;;;11.14;77.56;98851.71;102961;1256;97881;-74
2023/04/25 05:57:07;;;;;;;12.50;9.80;;;;;;;11.19;77.47;98854.77;102840;1256;139235;-74
2023/04/25 05:59:31;;;;;;;11.00;9.90;;;;;;;11.22;77.41;98855.27;102616;1258;107934;-74
2023/04/25 06:01:57;;;;;;;10.90;9.80;;;;;;;11.26;77.41;98860.80;102850;1261;97854;-75
2023/04/25 06:04:21;;;;;;;13.60;10.20;;;;;;;11.26;77.10;98864.80;102936;1256;138586;-77
2023/04/25 06:06:45;;;;;;;14.40;10.60;;;;;;;11.26;77.25;98863.71;102884;1256;97790;-72
2023/04/25 06:09:09;;;;;;;11.30;9.50;;;;;;;11.28;77.29;98866.05;102877;1256;138966;-76
2023/04/25 06:11:32;;;;;;;12.30;10.30;;;;;;;11.29;77.16;98866.52;102988;1261;108949;-80
2023/04/25 06:13:56;;;;;;;11.50;9.80;;;;;;;11.28;77.12;98865.38;103112;1256;97800;-76
2023/04/25 06:16:20;;;;;;;12.90;11.60;;;;;;;11.24;76.99;98868.58;102819;1256;138671;-80
2023/04/25 06:18:44;;;;;;;12.10;10.90;;;;;;;11.23;77.02;98868.65;103732;1256;97892;-77
2023/04/25 06:21:08;;;;;;;13.30;11.80;;;;;;;11.22;77.28;98874.78;102998;1256;138998;-77
2023/04/25 06:23:31;;;;;;;15.30;11.80;;;;;;;11.21;77.24;98879.89;103106;1256;105997;-78
2023/04/25 06:26:01;;;;;;;12.10;10.60;;;;;;;11.19;77.21;98888.16;102958;1256;97815;-80
2023/04/25 06:28:24;;;;;;;12.50;10.40;;;;;;;11.18;77.36;98893.23;102943;1259;138974;-81
2023/04/25 06:30:48;;;;;;;12.00;10.80;;;;;;;11.16;77.36;98902.80;104351;1257;95979;-71
2023/04/25 06:33:14;;;;;;;9.60;8.60;;;;;;;11.13;77.52;98910.77;102804;1256;139064;-74
2023/04/25 06:35:38;;;;;;;9.60;8.60;;;;;;;11.05;77.53;98915.40;102973;1256;107486;-77
2023/04/25 06:38:03;;;;;;;9.90;8.80;;;;;;;10.96;77.68;98925.47;102856;1256;98420;-76
2023/04/25 06:40:27;;;;;;;11.10;8.50;;;;;;;10.90;77.70;98926.98;104250;1256;138289;-78
2023/04/25 06:42:51;;;;;;;11.70;8.20;;;;;;;10.84;78.01;98924.88;103193;1256;98300;-77
2023/04/25 06:45:34;;;;;;;10.00;8.50;;;;;;;10.76;77.44;98911.39;103030;1257;138857;-74
2023/04/25 06:47:57;;;;;;;9.60;8.60;;;;;;;10.70;77.29;98908.77;102904;1261;110214;-78
2023/04/25 06:50:21;;;;;;;9.70;8.10;;;;;;;10.65;77.39;98911.65;104298;1256;96280;-77
2023/04/25 06:52:45;;;;;;;12.90;9.80;;;;;;;10.64;77.59;98906.15;103655;1256;138447;-76
2023/04/25 06:55:10;;;;;;;10.00;8.30;;;;;;;10.67;77.97;98899.73;102937;1256;97769;-78
2023/04/25 06:57:53;;;;;;;9.70;8.60;;;;;;;10.67;78.02;98904.58;103052;1259;138563;-76
2023/04/25 07:00:36;;;;;;;11.30;8.50;;;;;;;10.73;78.11;98912.40;103021;1256;107303;-78
2023/04/25 07:02:59;;;;;;;10.00;8.90;;;;;;;10.84;78.22;98910.80;102925;1257;138995;-73
2023/04/25 07:05:24;;;;;;;8.70;7.90;;;;;;;10.99;77.98;98906.02;103107;1260;108110;-77
2023/04/25 07:07:48;;;;;;;9.90;8.30;;;;;;;11.21;77.83;98901.08;104383;1256;95636;-77
2023/04/25 07:10:12;;;;;;;8.50;7.50;;;;;;;11.52;77.71;98897.57;103889;1256;138300;-78
2023/04/25 07:12:35;;;;;;;9.90;8.90;;;;;;;11.89;77.16;98892.33;102948;1260;108570;-77
2023/04/25 07:14:59;;;;;;;8.90;7.40;;;;;;;12.33;76.31;98890.20;102950;1259;138713;-74
2023/04/25 07:17:23;;;;;;;8.40;7.60;;;;;;;12.68;75.20;98891.17;103062;1260;109401;-76
2023/04/25 07:19:46;;;;;;;8.90;6.90;;;;;;;12.80;74.65;98892.89;102868;1256;97895;-77
2023/04/25 07:22:10;;;;;;;9.10;6.90;;;;;;;12.86;74.13;98896.85;102942;1260;138525;-78
2023/04/25 07:24:35;;;;;;;7.90;6.50;;;;;;;12.85;73.55;98897.48;102873;1256;108307;-76
2023/04/25 07:26:59;;;;;;;9.60;7.20;;;;;;;12.73;72.81;98898.52;102964;1260;138645;-72
2023/04/25 07:29:41;;;;;;;7.60;6.80;;;;;;;12.60;72.18;98897.11;103058;1260;108849;-78
2023/04/25 07:32:05;;;;;;;8.70;6.60;;;;;;;12.53;71.96;98895.04;103405;1260;97782;-78
2023/04/25 07:34:30;;;;;;;9.00;6.50;;;;;;;12.59;72.00;98893.45;102644;1256;138874;-77
2023/04/25 07:36:54;;;;;;;12.00;7.10;;;;;;;12.76;71.89;98894.66;102961;1256;107666;-77
2023/04/25 07:39:18;;;;;;;8.70;6.90;;;;;;;13.16;71.65;98899.11;102699;1262;138968;-77
2023/04/25 07:41:42;;;;;;;7.20;6.50;;;;;;;13.48;70.70;98900.42;102804;1259;108648;-78
2023/04/25 07:44:09;;;;;;;7.60;6.40;;;;;;;13.58;70.02;98907.05;103116;1256;98281;-77
2023/04/25 07:46:32;;;;;;;9.20;6.00;;;;;;;13.70;69.79;98909.40;102623;1259;138628;-76
2023/04/25 07:48:56;;;;;;;7.90;5.90;;;;;;;13.94;69.70;98910.58;102780;1263;107517;-80
2023/04/25 07:51:21;;;;;;;6.30;5.70;;;;;;;14.19;68.85;98904.04;102792;1261;138782;-81
2023/04/25 07:53:45;;;;;;;5.50;5.00;;;;;;;14.10;67.67;98907.98;102917;1263;106847;-78
2023/04/25 07:56:10;;;;;;;5.90;5.30;;;;;;;13.94;67.64;98914.10;102958;1256;97784;-79
2023/04/25 07:58:36;;;;;;;7.00;6.30;;;;;;;13.77;67.28;98912.98;102952;1256;138827;-79
2023/04/25 08:01:00;;;;;;;7.20;5.80;;;;;;;13.55;67.08;98914.24;102943;1263;107971;-79
2023/04/25 08:03:41;;;;;;;6.80;6.20;;;;;;;13.30;67.35;98916.42;102975;1260;138654;-79
2023/04/25 08:06:11;;;;;;;8.70;7.40;;;;;;;13.09;68.00;98913.52;102954;1258;107816;-78
2023/04/25 08:08:44;;;;;;;7.40;5.60;;;;;;;12.89;68.30;98913.23;102898;1259;97836;-79
2023/04/25 08:11:10;;;;;;;6.10;5.50;;;;;;;12.72;68.66;98914.13;102905;1260;138461;-80
2023/04/25 08:13:34;;;;;;;5.80;5.20;;;;;;;12.56;68.95;98917.76;102820;1256;108614;-80
2023/04/25 08:15:57;;;;;;;6.50;4.70;;;;;;;12.39;69.27;98923.13;102689;1261;138750;-78
2023/04/25 08:18:21;;;;;;;5.80;5.00;;;;;;;12.22;69.48;98923.13;103571;1260;107678;-78
2023/04/25 08:20:45;;;;;;;5.90;4.80;;;;;;;12.09;69.88;98932.08;104354;1256;95992;-77
2023/04/25 08:23:10;;;;;;;4.60;4.20;;;;;;;11.96;69.92;98925.02;102824;1256;138401;-79
2023/04/25 08:25:47;;;;;;;5.00;4.50;;;;;;;11.81;70.19;98925.50;104240;1256;107633;-87
2023/04/25 08:28:12;;;;;;;5.50;4.80;;;;;;;11.69;70.68;98923.59;104128;1256;139284;-83
2023/04/25 08:30:36;;;;;;;7.10;4.50;;;;;;;11.62;70.97;98929.04;104299;1256;106785;-83
2023/04/25 08:33:01;;;;;;;5.20;4.70;;;;;;;11.60;71.27;98930.73;104137;1256;142642;-82
2023/04/25 08:35:44;;;;;;;5.20;4.70;;;;;;;11.51;71.11;98933.18;103502;1258;111083;-80
2023/04/25 08:38:08;;;;;;;5.80;5.10;;;;;;;11.45;71.32;98936.23;102872;1259;108526;-79
2023/04/25 08:40:38;;;;;;;6.00;5.50;;;;;;;11.44;71.63;98942.92;102801;1258;138760;-81
2023/04/25 08:43:12;;;;;;;5.40;4.90;;;;;;;11.46;71.57;98945.45;102916;1257;107869;-81
2023/04/25 08:45:39;;;;;;;8.30;5.30;;;;;;;11.46;71.46;98947.54;103314;1261;140996;-81
2023/04/25 08:48:04;;;;;;;6.30;5.60;;;;;;;11.48;71.60;98946.01;103942;1257;111509;-83
2023/04/25 08:50:30;;;;;;;5.90;5.30;;;;;;;11.44;71.51;98953.18;103203;1257;107454;-78
2023/04/25 08:52:58;;;;;;;5.40;4.40;;;;;;;11.40;71.48;98957.63;103192;1259;138747;-76
2023/04/25 08:55:23;;;;;;;6.60;5.30;;;;;;;11.36;71.34;98963.45;102852;1258;107619;-75
2023/04/25 08:57:50;;;;;;;4.80;4.20;;;;;;;11.32;71.60;98968.67;102750;1258;138435;-84
2023/04/25 09:00:16;;;;;;;6.60;4.90;;;;;;;11.30;71.79;98967.22;102985;1259;110049;-76
2023/04/25 09:02:42;;;;;;;6.30;5.70;;;;;;;11.26;71.66;98974.94;103209;1259;108471;-76
2023/04/25 09:05:09;;;;;;;7.70;6.90;;;;;;;11.16;71.50;98973.20;103597;1259;139074;-78
2023/04/25 09:07:33;;;;;;;11.20;8.30;;;;;;;11.08;71.29;98977.66;102988;1259;108397;-78
2023/04/25 09:09:59;;;;;;;10.00;7.90;;;;;;;11.02;71.31;98978.84;102772;1256;138887;-82
2023/04/25 09:12:23;;;;;;;10.80;8.80;;;;;;;11.02;71.30;98981.99;102962;1259;111268;-79
2023/04/25 09:15:03;;;;;;;9.80;8.80;;;;;;;11.07;71.26;98980.67;103089;1260;108355;-80
2023/04/25 09:18:02;;;;;;;10.40;9.30;;;;;;;11.12;71.30;98981.60;103944;1267;96388;-81
2023/04/25 09:20:32;;;;;;;10.40;9.40;;;;;;;11.18;71.48;98981.11;103347;1262;108458;-81
2023/04/25 09:23:05;;;;;;;11.60;10.40;;;;;;;11.26;71.38;98982.23;103391;1260;138815;-79
2023/04/25 09:25:36;;;;;;;10.70;9.60;;;;;;;11.30;71.22;98977.50;103139;1256;111847;-80
2023/04/25 09:28:05;;;;;;;11.90;10.40;;;;;;;11.31;71.08;98978.84;102762;1259;138800;-82
2023/04/25 09:30:33;;;;;;;13.00;11.60;;;;;;;11.33;70.95;98980.15;103112;1256;98338;-82
2023/04/25 09:33:11;;;;;;;11.60;10.60;;;;;;;11.33;70.89;98984.49;102952;1256;139010;-79
2023/04/25 09:35:38;;;;;;;12.10;10.80;;;;;;;11.30;70.78;98987.76;104238;1256;96325;-78
2023/04/25 09:38:06;;;;;;;13.20;11.80;;;;;;;11.25;70.81;98989.59;104284;1256;111381;-80
2023/04/25 09:40:49;;;;;;;13.20;11.80;;;;;;;11.16;70.91;98994.59;102929;1260;138892;-83
2023/04/25 09:43:23;;;;;;;13.10;11.80;;;;;;;11.07;70.86;98999.09;103271;1256;97808;-82
2023/04/25 09:45:48;;;;;;;14.00;12.70;;;;;;;11.01;71.12;98999.27;103612;1256;138804;-82
2023/04/25 09:48:19;;;;;;;14.00;12.60;;;;;;;10.98;71.24;99005.17;102905;1261;97829;-80
2023/04/25 09:50:43;;;;;;;13.60;12.40;;;;;;;10.98;71.21;99007.27;102993;1256;111271;-81
2023/04/25 09:53:08;;;;;;;15.00;13.50;;;;;;;11.02;71.43;99009.48;102854;1256;139412;-78
2023/04/25 09:55:51;;;;;;;13.50;12.20;;;;;;;11.05;71.52;99010.89;102884;1261;97897;-80
2023/04/25 09:58:16;;;;;;;15.00;13.40;;;;;;;11.03;71.54;99014.61;102940;1256;138878;-80
2023/04/25 10:00:42;;;;;;;15.00;13.60;;;;;;;11.00;71.53;99014.63;102953;1260;97795;-79
2023/04/25 10:03:12;;;;;;;15.20;13.50;;;;;;;10.98;71.57;99018.42;102833;1256;139122;-82
2023/04/25 10:05:52;;;;;;;14.00;12.70;;;;;;;10.99;71.71;99022.73;102977;1260;108416;-79
2023/04/25 10:08:16;;;;;;;13.90;12.60;;;;;;;11.00;71.66;99024.20;103377;1260;98417;-79
2023/04/25 10:10:41;;;;;;;14.20;12.80;;;;;;;11.01;71.64;99022.91;103007;1256;139106;-82
2023/04/25 10:13:06;;;;;;;15.10;13.60;;;;;;;11.00;71.78;99020.55;103000;1256;97806;-79
2023/04/25 10:15:30;;;;;;;15.50;12.60;;;;;;;11.02;72.01;99016.82;102913;1260;139263;-79
2023/04/25 10:17:54;;;;;;;15.60;12.80;;;;;;;11.00;71.83;99018.84;103611;1256;107796;-80
2023/04/25 10:20:18;;;;;;;13.70;12.30;;;;;;;10.98;71.78;99020.67;102984;1256;97839;-81
2023/04/25 10:22:58;;;;;;;13.30;12.00;;;;;;;10.96;71.64;99021.30;102870;1260;139027;-79
2023/04/25 10:25:22;;;;;;;13.10;12.00;;;;;;;10.92;71.48;99020.23;102996;1256;97772;-77
2023/04/25 10:27:46;;;;;;;13.80;12.50;;;;;;;10.93;71.75;99022.48;104167;1256;138820;-77
2023/04/25 10:30:14;;;;;;;13.30;12.00;;;;;;;10.93;71.77;99022.29;103043;1256;107773;-71
2023/04/25 10:32:38;;;;;;;13.60;12.30;;;;;;;10.91;71.71;99021.52;103176;1260;97678;-71
2023/04/25 10:35:13;;;;;;;14.60;13.20;;;;;;;10.95;71.95;99020.83;103331;1260;141214;-69
2023/04/25 10:37:37;;;;;;;13.30;12.00;;;;;;;11.01;72.19;99020.34;103704;1256;97802;-77
2023/04/25 10:40:10;;;;;;;13.00;11.70;;;;;;;11.03;72.14;99022.64;102908;1256;139053;-77
2023/04/25 10:42:34;;;;;;;12.00;10.90;;;;;;;11.02;72.13;99023.57;103389;1259;108583;-76
2023/04/25 10:45:05;;;;;;;12.50;11.30;;;;;;;10.99;72.07;99018.52;102840;1262;98328;-81
2023/04/25 10:47:36;;;;;;;14.20;11.50;;;;;;;10.94;72.15;99019.80;103604;1259;107549;-83
2023/04/25 10:50:06;;;;;;;12.30;11.20;;;;;;;10.90;72.30;99018.07;103021;1256;97873;-80
2023/04/25 10:52:30;;;;;;;12.90;11.70;;;;;;;10.92;72.57;99023.02;104266;1256;138733;-79
2023/04/25 10:54:55;;;;;;;13.70;12.00;;;;;;;10.96;72.87;99018.31;102971;1260;108638;-80
2023/04/25 10:57:37;;;;;;;14.10;12.70;;;;;;;10.99;72.79;99020.44;102976;1257;139033;-81
2023/04/25 11:00:12;;;;;;;14.40;13.10;;;;;;;10.99;72.44;99020.29;103749;1259;107383;-79
2023/04/25 11:02:41;;;;;;;15.00;12.50;;;;;;;10.96;72.34;99021.45;103187;1260;97806;-79
2023/04/25 11:05:06;;;;;;;14.40;13.10;;;;;;;10.95;72.17;99024.11;102830;1261;138646;-80
2023/04/25 11:07:38;;;;;;;16.30;13.00;;;;;;;10.97;72.26;99025.39;104243;1261;105810;-80
2023/04/25 11:10:04;;;;;;;14.80;13.30;;;;;;;11.04;72.43;99026.60;102969;1259;140781;-79
2023/04/25 11:12:27;;;;;;;14.90;13.50;;;;;;;11.10;72.15;99024.49;103371;1258;106020;-78